createdAt,value
2022-12-26T00:00:15.762Z,100973.88
2022-12-26T00:02:50.284Z,100978.25
2022-12-26T00:05:19.477Z,100972.97
2022-12-26T00:07:48.603Z,100978.44
2022-12-26T00:13:39.269Z,100975.53
2022-12-26T00:15:54.426Z,100970.47
2022-12-26T00:18:23.807Z,100976.88
2022-12-26T00:20:58.119Z,100956.66
2022-12-26T00:23:38.777Z,100974.16
2022-12-26T00:26:09.616Z,100978.44
2022-12-26T00:28:41.170Z,100973.19
2022-12-26T00:31:13.324Z,100936.97
2022-12-26T00:33:43.494Z,100978.44
2022-12-26T00:36:15.217Z,100949.00
2022-12-26T00:38:45.583Z,100983.97
2022-12-26T00:41:15.918Z,100991.28
2022-12-26T00:43:47.482Z,100995.44
2022-12-26T00:46:17.842Z,100997.84
2022-12-26T00:48:47.516Z,100982.22
2022-12-26T00:51:23.234Z,101000.69
2022-12-26T00:53:52.375Z,101011.78
2022-12-26T00:56:22.846Z,101013.75
2022-12-26T00:59:04.162Z,101014.72
2022-12-26T01:01:33.789Z,101004.22
2022-12-26T01:04:04.005Z,101006.16
2022-12-26T01:06:33.659Z,101013.41
2022-12-26T01:09:08.054Z,101003.31
2022-12-26T01:11:43.426Z,101007.41
2022-12-26T01:14:16.988Z,101001.97
2022-12-26T01:16:48.212Z,101012.28
2022-12-26T01:19:23.653Z,100987.53
2022-12-26T01:21:52.906Z,101001.97
2022-12-26T01:24:22.041Z,101020.63
2022-12-26T01:26:51.381Z,101003.00
2022-12-26T01:29:27.716Z,101002.34
2022-12-26T01:31:57.011Z,101009.72
2022-12-26T01:37:12.846Z,101005.53
2022-12-26T01:39:42.146Z,101018.22
2022-12-26T01:42:19.972Z,101015.41
2022-12-26T01:45:24.138Z,101013.47
2022-12-26T01:48:05.361Z,101024.94
2022-12-26T01:50:45.984Z,101024.88
2022-12-26T01:53:21.383Z,101020.31
2022-12-26T01:55:55.500Z,101024.59
2022-12-26T01:58:30.614Z,100991.19
2022-12-26T02:01:04.762Z,101026.72
2022-12-26T02:03:47.464Z,100996.63
2022-12-26T02:06:27.443Z,101025.38
2022-12-26T02:08:57.218Z,101027.19
2022-12-26T02:11:30.743Z,101026.53
2022-12-26T02:14:02.284Z,101025.94
2022-12-26T02:16:35.923Z,101018.94
2022-12-26T02:19:09.152Z,101023.19
2022-12-26T02:22:04.824Z,101014.03
2022-12-26T02:24:57.132Z,101012.19
2022-12-26T02:28:02.620Z,101008.19
2022-12-26T02:30:41.523Z,101018.91
2022-12-26T02:33:34.665Z,101014.91
2022-12-26T02:36:43.211Z,101011.69
2022-12-26T02:39:44.443Z,101020.25
2022-12-26T02:45:44.949Z,101020.03
2022-12-26T02:48:23.730Z,100986.38
2022-12-26T02:51:33.016Z,101022.63
2022-12-26T02:54:48.613Z,101032.56
2022-12-26T02:57:34.948Z,101026.31
2022-12-26T03:00:29.624Z,101029.50
2022-12-26T03:03:16.696Z,101025.91
2022-12-26T03:06:05.034Z,101009.44
2022-12-26T03:08:51.529Z,101027.53
2022-12-26T03:11:33.867Z,101013.03
2022-12-26T03:14:14.833Z,101001.94
2022-12-26T03:17:01.461Z,101017.28
2022-12-26T03:19:33.131Z,101016.81
2022-12-26T03:22:26.521Z,101016.50
2022-12-26T03:25:09.164Z,101033.91
2022-12-26T03:27:43.533Z,101034.16
2022-12-26T03:30:26.060Z,101041.75
2022-12-26T03:33:00.982Z,101038.47
2022-12-26T03:35:32.397Z,101035.56
2022-12-26T03:38:14.449Z,101031.19
2022-12-26T03:41:04.069Z,101032.53
2022-12-26T03:44:01.427Z,101024.63
2022-12-26T03:49:59.862Z,101027.34
2022-12-26T03:52:52.316Z,101023.31
2022-12-26T03:58:50.402Z,101040.16
2022-12-26T04:01:36.649Z,101039.69
2022-12-26T04:04:21.756Z,101029.19
2022-12-26T04:07:12.935Z,101020.25
2022-12-26T04:09:58.285Z,101036.34
2022-12-26T04:12:45.302Z,101047.56
2022-12-26T04:15:36.464Z,101043.78
2022-12-26T04:18:29.660Z,101040.78
2022-12-26T04:21:34.039Z,101046.81
2022-12-26T04:24:27.001Z,101041.41
2022-12-26T04:27:18.275Z,101045.00
2022-12-26T04:30:02.699Z,101042.72
2022-12-26T04:32:52.797Z,101041.41
2022-12-26T04:35:47.228Z,101039.44
2022-12-26T04:38:36.101Z,101042.81
2022-12-26T04:41:19.977Z,101040.69
2022-12-26T04:44:09.657Z,101050.31
2022-12-26T04:46:49.921Z,101062.41
2022-12-26T04:49:33.107Z,101052.88
2022-12-26T04:52:06.519Z,101053.78
2022-12-26T04:54:43.806Z,101047.22
2022-12-26T04:59:48.845Z,101055.19
2022-12-26T05:02:35.795Z,101067.44
2022-12-26T05:05:18.228Z,101058.47
2022-12-26T05:08:00.369Z,101062.47
2022-12-26T05:10:30.908Z,101074.09
2022-12-26T05:13:05.370Z,101067.19
2022-12-26T05:15:54.989Z,101080.59
2022-12-26T05:18:39.317Z,101074.69
2022-12-26T05:21:28.700Z,101078.63
2022-12-26T05:24:11.542Z,101063.47
2022-12-26T05:26:53.779Z,101067.78
2022-12-26T05:29:22.993Z,101071.94
2022-12-26T05:32:03.376Z,101065.97
2022-12-26T05:34:37.530Z,101075.28
2022-12-26T05:37:11.799Z,101066.28
2022-12-26T05:39:45.973Z,101084.50
2022-12-26T05:42:18.234Z,101084.75
2022-12-26T05:44:47.553Z,101048.69
2022-12-26T05:47:16.746Z,101078.06
2022-12-26T05:49:47.962Z,101038.78
2022-12-26T05:52:17.187Z,101084.66
2022-12-26T05:54:46.353Z,101084.31
2022-12-26T05:57:15.670Z,101086.84
2022-12-26T05:59:44.837Z,101085.13
2022-12-26T06:02:19.145Z,101086.59
2022-12-26T06:04:50.386Z,101094.84
2022-12-26T06:07:19.615Z,101085.09
2022-12-26T06:09:48.714Z,101080.00
2022-12-26T06:12:17.769Z,101083.09
2022-12-26T06:14:47.023Z,101096.50
2022-12-26T06:17:16.291Z,101099.56
2022-12-26T06:19:47.028Z,101100.81
2022-12-26T06:22:24.983Z,101104.53
2022-12-26T06:24:54.156Z,101103.94
2022-12-26T06:27:23.262Z,101100.25
2022-12-26T06:29:52.439Z,101101.22
2022-12-26T06:32:21.600Z,101104.63
2022-12-26T06:34:50.926Z,101109.19
2022-12-26T06:37:20.157Z,101106.81
2022-12-26T06:39:51.572Z,101115.41
2022-12-26T06:42:27.445Z,101115.81
2022-12-26T06:44:56.558Z,101117.38
2022-12-26T06:47:32.329Z,101128.97
2022-12-26T06:50:01.457Z,101132.78
2022-12-26T06:52:32.248Z,101138.81
2022-12-26T06:55:09.648Z,101130.72
2022-12-26T06:57:39.121Z,101140.59
2022-12-26T07:00:10.109Z,101140.69
2022-12-26T07:02:41.762Z,101109.91
2022-12-26T07:05:16.200Z,101148.13
2022-12-26T07:07:45.374Z,101149.66
2022-12-26T07:10:16.558Z,101131.66
2022-12-26T07:12:57.390Z,101147.38
2022-12-26T07:15:26.918Z,101154.91
2022-12-26T07:18:01.068Z,101149.28
2022-12-26T07:20:30.620Z,101149.41
2022-12-26T07:22:59.774Z,101149.25
2022-12-26T07:25:31.235Z,101139.41
2022-12-26T07:28:00.558Z,101142.94
2022-12-26T07:30:29.630Z,101143.53
2022-12-26T07:32:58.807Z,101149.56
2022-12-26T07:35:27.977Z,101167.69
2022-12-26T07:37:57.237Z,101152.19
2022-12-26T07:40:28.838Z,101156.59
2022-12-26T07:43:00.020Z,101154.22
2022-12-26T07:45:29.533Z,101144.03
2022-12-26T07:47:59.082Z,101158.88
2022-12-26T07:50:29.527Z,101141.56
2022-12-26T07:53:00.542Z,101161.09
2022-12-26T07:55:29.782Z,101171.19
2022-12-26T07:58:01.024Z,101169.38
2022-12-26T08:00:30.549Z,101156.28
2022-12-26T08:05:44.697Z,101161.19
2022-12-26T08:08:13.866Z,101161.31
2022-12-26T08:10:48.524Z,101176.00
2022-12-26T08:13:19.779Z,101167.31
2022-12-26T08:15:49.388Z,101177.31
2022-12-26T08:18:18.512Z,101170.84
2022-12-26T08:20:48.292Z,101173.94
2022-12-26T08:23:17.642Z,101166.59
2022-12-26T08:25:46.835Z,101174.69
2022-12-26T08:28:15.909Z,101168.06
2022-12-26T08:30:52.314Z,101179.50
2022-12-26T08:33:21.920Z,101177.50
2022-12-26T08:35:51.068Z,101159.94
2022-12-26T08:40:57.287Z,101181.38
2022-12-26T08:43:52.749Z,101174.59
2022-12-26T08:46:20.854Z,101166.09
2022-12-26T08:48:51.497Z,101176.16
2022-12-26T08:54:02.047Z,101138.41
2022-12-26T08:56:31.568Z,101177.03
2022-12-26T08:59:00.789Z,101185.59
2022-12-26T09:01:33.147Z,101176.63
2022-12-26T09:04:06.590Z,101186.84
2022-12-26T09:06:37.242Z,101170.22
2022-12-26T09:09:07.950Z,101162.91
2022-12-26T09:11:37.233Z,101123.78
2022-12-26T09:14:08.698Z,101169.97
2022-12-26T09:16:49.737Z,101143.81
2022-12-26T09:19:21.262Z,101175.25
2022-12-26T09:22:12.626Z,101185.31
2022-12-26T09:24:47.019Z,101175.25
2022-12-26T09:27:16.167Z,101182.97
2022-12-26T09:29:45.392Z,101178.44
2022-12-26T09:32:16.884Z,101181.16
2022-12-26T09:34:46.324Z,101171.19
2022-12-26T09:37:15.493Z,101157.16
2022-12-26T09:39:51.866Z,101181.41
2022-12-26T09:42:29.993Z,101168.44
2022-12-26T09:45:06.684Z,101160.47
2022-12-26T09:47:44.183Z,101167.66
2022-12-26T09:50:18.183Z,101150.13
2022-12-26T09:52:57.041Z,101158.44
2022-12-26T09:55:39.841Z,101165.91
2022-12-26T09:58:20.663Z,101161.34
2022-12-26T10:00:54.885Z,101120.44
2022-12-26T10:03:32.061Z,101150.41
2022-12-26T10:06:12.109Z,101144.66
2022-12-26T10:08:55.361Z,101141.84
2022-12-26T10:11:29.994Z,101135.97
2022-12-26T10:14:05.633Z,101144.00
2022-12-26T10:16:48.477Z,101146.19
2022-12-26T10:19:34.176Z,101142.25
2022-12-26T10:22:20.554Z,101144.56
2022-12-26T10:24:52.066Z,101140.56
2022-12-26T10:27:23.261Z,101151.50
2022-12-26T10:29:57.382Z,101142.25
2022-12-26T10:32:37.705Z,101130.94
2022-12-26T10:35:24.291Z,101136.00
2022-12-26T10:37:55.058Z,101127.81
2022-12-26T10:40:29.621Z,101131.81
2022-12-26T10:43:03.857Z,101097.59
2022-12-26T10:45:44.851Z,101125.47
2022-12-26T10:48:16.552Z,101133.34
2022-12-26T10:50:50.787Z,101117.66
2022-12-26T10:53:25.059Z,101129.75
2022-12-26T10:55:54.199Z,101133.84
2022-12-26T10:58:30.491Z,101131.72
2022-12-26T11:01:19.708Z,101138.34
2022-12-26T11:03:57.257Z,101112.56
2022-12-26T11:06:33.414Z,101133.63
2022-12-26T11:09:02.790Z,101131.00
2022-12-26T11:11:47.337Z,101126.34
2022-12-26T11:14:34.244Z,101130.94
2022-12-26T11:17:06.834Z,101118.78
2022-12-26T11:19:38.300Z,101101.78
2022-12-26T11:22:34.062Z,101115.22
2022-12-26T11:25:24.120Z,101126.97
2022-12-26T11:27:56.470Z,101099.88
2022-12-26T11:30:30.282Z,101122.97
2022-12-26T11:33:23.796Z,101125.78
2022-12-26T11:35:56.838Z,101099.75
2022-12-26T11:38:44.971Z,101120.03
2022-12-26T11:41:35.835Z,101126.25
2022-12-26T11:44:16.625Z,101114.00
2022-12-26T11:46:54.360Z,101123.38
2022-12-26T11:49:29.518Z,101112.94
2022-12-26T11:52:00.171Z,101110.78
2022-12-26T11:54:35.024Z,101125.09
2022-12-26T11:57:29.891Z,101119.94
2022-12-26T12:00:18.526Z,101132.38
2022-12-26T12:02:48.510Z,101121.75
2022-12-26T12:05:27.510Z,101121.75
2022-12-26T12:08:15.657Z,101127.50
2022-12-26T12:11:12.839Z,101123.34
2022-12-26T12:14:01.732Z,101133.03
2022-12-26T12:16:43.330Z,101137.97
2022-12-26T12:19:38.538Z,101131.03
2022-12-26T12:22:39.703Z,101136.22
2022-12-26T12:25:38.661Z,101117.22
2022-12-26T12:28:27.503Z,101122.81
2022-12-26T12:31:04.280Z,101109.56
2022-12-26T12:33:47.523Z,101122.06
2022-12-26T12:36:23.319Z,101123.03
2022-12-26T12:39:12.610Z,101120.38
2022-12-26T12:42:23.118Z,101126.63
2022-12-26T12:45:20.948Z,101130.28
2022-12-26T12:55:15.563Z,101132.41
2022-12-26T12:57:55.054Z,101131.53
2022-12-26T13:00:27.524Z,101124.69
2022-12-26T13:03:03.703Z,101135.47
2022-12-26T13:05:46.612Z,101123.63
2022-12-26T13:08:21.540Z,101124.06
2022-12-26T13:10:55.171Z,101125.28
2022-12-26T13:13:30.199Z,101110.13
2022-12-26T13:16:05.381Z,101115.72
2022-12-26T13:18:42.351Z,101106.16
2022-12-26T13:21:14.094Z,101108.81
2022-12-26T13:23:59.859Z,101113.41
2022-12-26T13:26:32.249Z,101115.06
2022-12-26T13:29:11.511Z,101130.22
2022-12-26T13:31:42.957Z,101082.34
2022-12-26T13:34:18.855Z,101123.84
2022-12-26T13:36:55.190Z,101116.16
2022-12-26T13:39:41.749Z,101138.75
2022-12-26T13:43:01.146Z,101135.09
2022-12-26T13:45:52.227Z,101089.38
2022-12-26T13:48:51.326Z,101138.31
2022-12-26T13:51:50.428Z,101136.13
2022-12-26T13:54:20.906Z,101139.41
2022-12-26T13:57:18.353Z,101135.25
2022-12-26T13:59:59.753Z,101134.03
2022-12-26T14:03:17.397Z,101097.47
2022-12-26T14:06:07.986Z,101129.31
2022-12-26T14:08:54.619Z,101137.78
2022-12-26T14:11:47.484Z,101128.88
2022-12-26T14:14:28.495Z,101122.28
2022-12-26T14:17:03.971Z,101119.84
2022-12-26T14:19:48.369Z,101125.16
2022-12-26T14:22:32.095Z,101125.38
2022-12-26T14:25:16.819Z,101100.38
2022-12-26T14:27:52.147Z,101113.84
2022-12-26T14:30:26.175Z,101101.13
2022-12-26T14:33:23.974Z,101108.47
2022-12-26T14:36:04.394Z,101102.56
2022-12-26T14:38:48.581Z,101105.63
2022-12-26T14:41:33.714Z,101086.41
2022-12-26T14:44:13.253Z,101075.44
2022-12-26T14:46:58.935Z,101113.09
2022-12-26T14:49:39.733Z,101082.34
2022-12-26T14:52:44.088Z,101101.78
2022-12-26T14:55:48.420Z,101105.31
2022-12-26T14:58:38.343Z,101099.94
2022-12-26T15:01:37.479Z,101094.19
2022-12-26T15:04:17.244Z,101104.75
2022-12-26T15:07:14.135Z,101104.75
2022-12-26T15:10:24.586Z,101090.38
2022-12-26T15:13:31.701Z,101107.28
2022-12-26T15:16:15.955Z,101099.34
2022-12-26T15:19:11.449Z,101100.16
2022-12-26T15:22:12.117Z,101099.03
2022-12-26T15:25:22.343Z,101083.66
2022-12-26T15:28:23.812Z,101084.91
2022-12-26T15:31:26.575Z,101066.78
2022-12-26T15:34:04.555Z,101073.13
2022-12-26T15:36:45.225Z,101073.47
2022-12-26T15:39:26.527Z,101074.38
2022-12-26T15:42:12.137Z,101044.16
2022-12-26T15:44:49.651Z,101058.66
2022-12-26T15:47:32.425Z,101049.78
2022-12-26T15:50:18.635Z,101058.44
2022-12-26T15:52:58.313Z,101075.34
2022-12-26T15:55:53.816Z,101074.91
2022-12-26T15:58:43.137Z,101075.13
2022-12-26T16:01:15.207Z,101042.44
2022-12-26T16:03:51.538Z,101067.44
2022-12-26T16:06:33.497Z,101078.50
2022-12-26T16:09:27.769Z,101069.63
2022-12-26T16:11:59.384Z,101057.44
2022-12-26T16:14:37.628Z,101060.16
2022-12-26T16:17:22.980Z,101048.06
2022-12-26T16:19:59.118Z,101067.81
2022-12-26T16:22:48.768Z,101033.91
2022-12-26T16:25:31.244Z,101052.22
2022-12-26T16:28:02.485Z,101061.97
2022-12-26T16:30:37.009Z,101034.44
2022-12-26T16:33:14.037Z,101042.38
2022-12-26T16:35:44.989Z,101056.44
2022-12-26T16:38:18.504Z,101056.84
2022-12-26T16:43:36.597Z,101027.44
2022-12-26T16:46:08.826Z,101060.88
2022-12-26T16:48:41.679Z,101037.13
2022-12-26T16:51:40.966Z,101040.06
2022-12-26T16:54:19.088Z,101061.50
2022-12-26T16:56:51.729Z,101062.66
2022-12-26T16:59:23.324Z,101028.13
2022-12-26T17:01:56.633Z,101040.50
2022-12-26T17:04:30.112Z,101052.09
2022-12-26T17:07:08.857Z,101057.59
2022-12-26T17:09:43.751Z,101049.94
2022-12-26T17:12:22.929Z,101046.03
2022-12-26T17:14:53.083Z,101051.38
2022-12-26T17:17:38.674Z,101049.72
2022-12-26T17:20:35.912Z,101044.88
2022-12-26T17:23:34.342Z,101045.63
2022-12-26T17:26:23.271Z,101055.25
2022-12-26T17:28:58.021Z,101036.06
2022-12-26T17:31:35.425Z,101053.81
2022-12-26T17:34:09.833Z,101041.16
2022-12-26T17:39:36.132Z,101019.69
2022-12-26T17:42:07.726Z,101037.13
2022-12-26T17:44:42.573Z,101028.38
2022-12-26T17:47:22.910Z,101028.31
2022-12-26T17:49:58.075Z,101031.63
2022-12-26T17:52:31.446Z,101032.97
2022-12-26T17:55:08.120Z,101028.38
2022-12-26T17:57:37.307Z,101028.38
2022-12-26T18:00:13.666Z,101027.03
2022-12-26T18:02:43.023Z,101020.41
2022-12-26T18:05:12.453Z,101019.09
2022-12-26T18:07:44.537Z,101017.72
2022-12-26T18:10:19.599Z,101021.63
2022-12-26T18:12:52.584Z,101021.31
2022-12-26T18:15:23.863Z,101003.31
2022-12-26T18:17:54.518Z,101009.97
2022-12-26T18:20:26.500Z,101029.69
2022-12-26T18:22:58.903Z,101024.03
2022-12-26T18:25:28.967Z,100982.91
2022-12-26T18:27:58.149Z,100989.00
2022-12-26T18:30:28.489Z,101001.28
2022-12-26T18:32:57.639Z,100981.75
2022-12-26T18:35:26.880Z,100994.44
2022-12-26T18:38:08.149Z,100996.13
2022-12-26T18:40:39.488Z,100990.41
2022-12-26T18:43:10.232Z,100984.59
2022-12-26T18:45:40.306Z,100961.47
2022-12-26T18:48:16.470Z,100984.41
2022-12-26T18:50:47.625Z,100985.06
2022-12-26T18:53:22.051Z,100968.03
2022-12-26T18:55:51.326Z,100976.66
2022-12-26T18:58:25.852Z,100988.91
2022-12-26T19:00:55.140Z,100956.78
2022-12-26T19:03:24.623Z,100994.38
2022-12-26T19:05:56.576Z,100982.50
2022-12-26T19:08:30.837Z,100990.81
2022-12-26T19:11:00.001Z,100976.22
2022-12-26T19:13:29.372Z,100987.88
2022-12-26T19:15:58.835Z,100983.78
2022-12-26T19:18:28.158Z,100974.88
2022-12-26T19:20:57.298Z,100973.00
2022-12-26T19:23:29.110Z,100976.38
2022-12-26T19:25:58.609Z,100970.97
2022-12-26T19:28:27.826Z,100970.78
2022-12-26T19:30:57.220Z,100940.44
2022-12-26T19:33:26.411Z,100962.13
2022-12-26T19:35:57.789Z,100968.06
2022-12-26T19:38:29.102Z,100970.13
2022-12-26T19:41:04.345Z,100962.94
2022-12-26T19:43:34.516Z,100957.66
2022-12-26T19:46:06.568Z,100953.44
2022-12-26T19:48:40.225Z,100959.19
2022-12-26T19:51:16.934Z,100948.69
2022-12-26T19:53:48.956Z,100922.78
2022-12-26T19:56:20.276Z,100938.56
2022-12-26T19:58:54.689Z,100923.47
2022-12-26T20:01:28.098Z,100931.13
2022-12-26T20:03:58.405Z,100926.94
2022-12-26T20:06:34.531Z,100931.00
2022-12-26T20:09:08.243Z,100927.03
2022-12-26T20:11:45.383Z,100930.31
2022-12-26T20:14:18.777Z,100922.31
2022-12-26T20:17:09.867Z,100926.78
2022-12-26T20:19:39.712Z,100919.91
2022-12-26T20:22:09.563Z,100911.97
2022-12-26T20:24:40.906Z,100897.59
2022-12-26T20:27:13.282Z,100907.38
2022-12-26T20:29:47.044Z,100900.06
2022-12-26T20:34:51.422Z,100902.63
2022-12-26T20:37:20.587Z,100890.16
2022-12-26T20:39:58.829Z,100907.16
2022-12-26T20:42:38.091Z,100901.53
2022-12-26T20:45:08.773Z,100911.28
2022-12-26T20:47:37.959Z,100911.28
2022-12-26T20:50:12.205Z,100910.66
2022-12-26T20:52:41.390Z,100899.50
2022-12-26T20:55:18.428Z,100894.53
2022-12-26T20:57:47.862Z,100899.47
2022-12-26T21:00:18.602Z,100901.91
2022-12-26T21:02:48.142Z,100900.34
2022-12-26T21:05:17.618Z,100895.34
2022-12-26T21:07:51.992Z,100892.94
2022-12-26T21:10:23.200Z,100906.72
2022-12-26T21:12:52.550Z,100886.72
2022-12-26T21:15:26.728Z,100908.34
2022-12-26T21:17:56.055Z,100905.47
2022-12-26T21:20:25.176Z,100910.06
2022-12-26T21:22:55.521Z,100897.41
2022-12-26T21:25:38.232Z,100903.69
2022-12-26T21:28:10.043Z,100886.38
2022-12-26T21:30:39.087Z,100910.56
2022-12-26T21:33:08.211Z,100905.44
2022-12-26T21:35:43.258Z,100900.84
2022-12-26T21:38:12.391Z,100904.22
2022-12-26T21:40:45.115Z,100888.63
2022-12-26T21:43:15.321Z,100883.88
2022-12-26T21:45:44.858Z,100893.25
2022-12-26T21:48:14.443Z,100860.78
2022-12-26T21:50:50.951Z,100884.84
2022-12-26T21:53:20.949Z,100881.97
2022-12-26T21:55:50.115Z,100876.63
2022-12-26T21:58:19.349Z,100868.66
2022-12-26T22:00:48.468Z,100871.06
2022-12-26T22:03:30.705Z,100864.56
2022-12-26T22:06:06.878Z,100872.31
2022-12-26T22:08:36.756Z,100844.25
2022-12-26T22:11:30.187Z,100833.09
2022-12-26T22:14:04.493Z,100861.22
2022-12-26T22:16:39.011Z,100847.97
2022-12-26T22:19:08.738Z,100855.84
2022-12-26T22:21:37.904Z,100837.13
2022-12-26T22:24:07.746Z,100866.16
2022-12-26T22:26:39.034Z,100860.25
2022-12-26T22:29:08.265Z,100854.94
2022-12-26T22:31:39.646Z,100852.78
2022-12-26T22:34:14.807Z,100858.63
2022-12-26T22:36:49.271Z,100843.41
2022-12-26T22:39:18.662Z,100850.63
2022-12-26T22:41:49.729Z,100838.56
2022-12-26T22:44:20.724Z,100848.28
2022-12-26T22:46:49.925Z,100838.72
2022-12-26T22:49:19.069Z,100838.63
2022-12-26T22:51:48.450Z,100836.72
2022-12-26T22:54:17.496Z,100821.59
2022-12-26T22:56:46.859Z,100827.13
2022-12-26T22:59:41.295Z,100825.72
2022-12-26T23:02:07.428Z,100803.63
2022-12-26T23:04:40.712Z,100820.28
2022-12-26T23:07:15.843Z,100824.78
2022-12-26T23:09:45.560Z,100818.31
2022-12-26T23:12:33.553Z,100818.81
2022-12-26T23:15:05.561Z,100813.97
2022-12-26T23:17:53.055Z,100816.19
2022-12-26T23:20:48.762Z,100807.38
2022-12-26T23:23:18.799Z,100811.75
2022-12-26T23:25:47.952Z,100808.56
2022-12-26T23:28:30.046Z,100805.31
2022-12-26T23:31:03.056Z,100798.94
2022-12-26T23:33:32.619Z,100800.25
2022-12-26T23:36:08.199Z,100770.09
2022-12-26T23:38:37.467Z,100784.47
2022-12-26T23:41:06.967Z,100798.47
2022-12-26T23:43:36.148Z,100790.41
2022-12-26T23:46:12.856Z,100806.75
2022-12-26T23:48:57.523Z,100799.34
2022-12-26T23:51:26.897Z,100776.66
2022-12-26T23:53:55.947Z,100782.41
2022-12-26T23:56:27.324Z,100783.28
2022-12-26T23:58:56.758Z,100764.63
